»·PEaware :: N129HF KSNA-KCRQ

N129HF :: KSNA-KCRQ

FLIGHT INFORMATION

Flight Status: Arrived
Operator: Privately registered:
United States
More flights under this callsign
Pilot: Jerrivel R. (26020)
Aircraft: CESSNA 172 SKYHAWK
(C172)
More flights by this aircraft type
Origin: KSNA John Wayne-Orange Co
United States
Destination: KCRQ McClellan-Palomar
United States
More flights between these airports :: More routes between these airports
Route: V23 OCN
File this flight plan on PilotEdge
Remarks: I-2 RATING
Altitude:
(Current/Filed)
5,000ft
Speed:
(Current/Filed)
108kts
Departed: 19-Jan-21 08:35 PM
Arrived: 19-Jan-21 09:24 PM
Distance/Time
Traveled:
44nm/0:49
Distance/Time
To Go:
Arrived

Flight Plot

Page will automatically refresh every two minutes.


Map Options




Map Legend


Flown Route
Filed Route
Departure Airport
Arrival Airport
Navaid (VOR, NDB)
Fix

Horizontal Profiles

Position Reports

Time Latitude Longitude Heading Altitude Ground
Speed
19-Jan-21 20:16 33.675027 -117.871450 211 59ft 0kts
19-Jan-21 20:17 33.675025 -117.871452 211 59ft 0kts
19-Jan-21 20:18 33.675022 -117.871453 211 59ft 0kts
19-Jan-21 20:19 33.675020 -117.871455 211 59ft 0kts
19-Jan-21 20:20 33.675017 -117.871457 211 59ft 0kts
19-Jan-21 20:21 33.675014 -117.871459 211 59ft 0kts
19-Jan-21 20:22 33.675012 -117.871461 211 59ft 0kts
19-Jan-21 20:23 33.675155 -117.871364 37 59ft 3kts
19-Jan-21 20:24 33.674103 -117.871338 208 59ft 12kts
19-Jan-21 20:25 33.670310 -117.873729 205 59ft 13kts
19-Jan-21 20:26 33.669694 -117.873765 36 59ft 0kts
19-Jan-21 20:27 33.669696 -117.873763 36 59ft 0kts
19-Jan-21 20:28 33.669700 -117.873760 36 59ft 0kts
19-Jan-21 20:29 33.669704 -117.873756 36 59ft 0kts
19-Jan-21 20:30 33.669706 -117.873755 36 59ft 0kts
19-Jan-21 20:31 33.669708 -117.873753 36 59ft 0kts
19-Jan-21 20:32 33.669889 -117.873899 246 59ft 4kts
19-Jan-21 20:33 33.668226 -117.874463 136 59ft 7kts
19-Jan-21 20:34 33.675966 -117.868755 26 355ft 69kts
19-Jan-21 20:35 33.680290 -117.882224 246 1377ft 89kts
19-Jan-21 20:36 33.668394 -117.910171 242 2317ft 96kts
19-Jan-21 20:37 33.650298 -117.921741 108 3205ft 76kts
19-Jan-21 20:38 33.640185 -117.899887 105 4087ft 73kts
19-Jan-21 20:39 33.630104 -117.879591 111 4896ft 75kts
19-Jan-21 20:40 33.616629 -117.857925 116 5054ft 85kts
19-Jan-21 20:41 33.599574 -117.836212 120 5042ft 89kts
19-Jan-21 20:42 33.581754 -117.814181 121 5009ft 93kts
19-Jan-21 20:43 33.564801 -117.791761 115 5032ft 89kts
19-Jan-21 20:44 33.548034 -117.768976 123 5013ft 94kts
19-Jan-21 20:45 33.529357 -117.747274 122 4982ft 95kts
19-Jan-21 20:46 33.511829 -117.725560 122 5030ft 94kts
19-Jan-21 20:47 33.489854 -117.706371 136 5049ft 100kts
19-Jan-21 20:48 33.465463 -117.691429 131 5032ft 92kts
19-Jan-21 20:49 33.445180 -117.673376 124 5003ft 88kts
19-Jan-21 20:50 33.427167 -117.652961 119 5028ft 91kts
19-Jan-21 20:51 33.411498 -117.629190 120 5001ft 94kts
19-Jan-21 20:52 33.393589 -117.606188 117 5079ft 93kts
19-Jan-21 20:53 33.376700 -117.583107 122 5052ft 92kts
19-Jan-21 20:54 33.358893 -117.561728 122 5074ft 88kts
19-Jan-21 20:55 33.341708 -117.540073 121 5063ft 90kts
19-Jan-21 20:56 33.324014 -117.518602 124 5047ft 92kts
19-Jan-21 20:57 33.308324 -117.497051 119 5082ft 89kts
19-Jan-21 20:58 33.288175 -117.476679 134 5054ft 96kts
19-Jan-21 20:59 33.269903 -117.455149 115 5033ft 89kts
19-Jan-21 21:00 33.255222 -117.430585 118 5008ft 92kts
19-Jan-21 21:01 33.237036 -117.408731 127 5017ft 95kts
19-Jan-21 21:02 33.229358 -117.383104 89 4996ft 87kts
19-Jan-21 21:03 33.227124 -117.355373 88 5037ft 84kts
19-Jan-21 21:04 33.225595 -117.327521 88 5047ft 84kts
19-Jan-21 21:05 33.224143 -117.299536 89 5067ft 82kts
19-Jan-21 21:06 33.221967 -117.271493 93 5040ft 86kts
19-Jan-21 21:07 33.219365 -117.243098 90 5005ft 87kts
19-Jan-21 21:08 33.214831 -117.215025 95 4531ft 86kts
19-Jan-21 21:09 33.209390 -117.186117 97 4030ft 85kts
19-Jan-21 21:10 33.202702 -117.159130 101 4072ft 83kts
19-Jan-21 21:11 33.196716 -117.129555 93 4052ft 90kts
19-Jan-21 21:12 33.191590 -117.101822 96 4057ft 84kts
19-Jan-21 21:13 33.187243 -117.074226 87 4104ft 88kts
19-Jan-21 21:14 33.185269 -117.044919 114 4059ft 89kts
19-Jan-21 21:15 33.160785 -117.050932 227 3626ft 110kts
19-Jan-21 21:16 33.155426 -117.086003 272 3531ft 105kts
19-Jan-21 21:17 33.152636 -117.121736 266 2994ft 105kts
19-Jan-21 21:18 33.147012 -117.155915 259 2452ft 102kts
19-Jan-21 21:19 33.142602 -117.188356 262 1888ft 89kts
19-Jan-21 21:20 33.138076 -117.218016 257 1336ft 92kts
19-Jan-21 21:21 33.132785 -117.247114 258 830ft 88kts
19-Jan-21 21:22 33.129532 -117.272153 257 362ft 67kts
19-Jan-21 21:23 33.127580 -117.280473 222 334ft 0kts
19-Jan-21 21:24 33.127578 -117.280476 222 334ft 0kts
19-Jan-21 21:25 33.126625 -117.280950 153 334ft 4kts
19-Jan-21 21:26 33.126531 -117.280619 71 334ft 0kts
19-Jan-21 21:27 33.126533 -117.280612 71 334ft 0kts
19-Jan-21 21:28 33.126534 -117.280609 71 334ft 0kts
19-Jan-21 21:29 33.126534 -117.280608 71 334ft 0kts
19-Jan-21 21:30 33.126534 -117.280608 71 334ft 0kts

Navigation Log

Ident Type
Flight plan parsing failed, navigation log unavailable